sensor_id;sensor_type;location;lat;lon;timestamp;temperature;humidity
16955;DHT22;8594;52.052;8.354;2023-11-21T00:01:07;10.10;99.90
16955;DHT22;8594;52.052;8.354;2023-11-21T00:03:34;10.10;99.90
16955;DHT22;8594;52.052;8.354;2023-11-21T00:06:01;10.10;99.90
16955;DHT22;8594;52.052;8.354;2023-11-21T00:08:29;10.00;99.90
16955;DHT22;8594;52.052;8.354;2023-11-21T00:10:56;10.00;99.90
16955;DHT22;8594;52.052;8.354;2023-11-21T00:13:26;10.10;99.90
16955;DHT22;8594;52.052;8.354;2023-11-21T00:15:52;10.10;99.90
16955;DHT22;8594;52.052;8.354;2023-11-21T00:18:20;10.10;99.90
16955;DHT22;8594;52.052;8.354;2023-11-21T00:20:47;10.00;99.90
16955;DHT22;8594;52.052;8.354;2023-11-21T00:23:14;10.00;99.90
16955;DHT22;8594;52.052;8.354;2023-11-21T00:25:42;10.00;99.90
16955;DHT22;8594;52.052;8.354;2023-11-21T00:28:09;10.00;99.90
16955;DHT22;8594;52.052;8.354;2023-11-21T00:30:36;9.90;99.90
16955;DHT22;8594;52.052;8.354;2023-11-21T00:33:03;10.10;99.90
16955;DHT22;8594;52.052;8.354;2023-11-21T00:35:30;10.20;99.90
16955;DHT22;8594;52.052;8.354;2023-11-21T00:37:57;10.10;99.90
16955;DHT22;8594;52.052;8.354;2023-11-21T00:40:24;10.30;99.90
16955;DHT22;8594;52.052;8.354;2023-11-21T00:42:52;10.30;99.90
16955;DHT22;8594;52.052;8.354;2023-11-21T00:45:18;10.30;99.90
16955;DHT22;8594;52.052;8.354;2023-11-21T00:47:45;10.30;99.90
16955;DHT22;8594;52.052;8.354;2023-11-21T00:50:12;10.30;99.90
16955;DHT22;8594;52.052;8.354;2023-11-21T00:52:39;10.40;99.90
16955;DHT22;8594;52.052;8.354;2023-11-21T00:55:06;10.30;99.90
16955;DHT22;8594;52.052;8.354;2023-11-21T00:57:34;10.30;99.90
16955;DHT22;8594;52.052;8.354;2023-11-21T01:00:05;10.30;99.90
16955;DHT22;8594;52.052;8.354;2023-11-21T01:02:34;10.30;99.90
16955;DHT22;8594;52.052;8.354;2023-11-21T01:05:02;10.40;99.90
16955;DHT22;8594;52.052;8.354;2023-11-21T01:07:29;10.40;99.90
16955;DHT22;8594;52.052;8.354;2023-11-21T01:09:56;10.40;99.90
16955;DHT22;8594;52.052;8.354;2023-11-21T01:12:22;10.30;99.90
16955;DHT22;8594;52.052;8.354;2023-11-21T01:14:50;10.30;99.90
16955;DHT22;8594;52.052;8.354;2023-11-21T01:17:18;10.30;99.90
16955;DHT22;8594;52.052;8.354;2023-11-21T01:19:48;10.30;99.90
16955;DHT22;8594;52.052;8.354;2023-11-21T01:22:15;10.40;99.90
16955;DHT22;8594;52.052;8.354;2023-11-21T01:24:43;10.40;99.90
16955;DHT22;8594;52.052;8.354;2023-11-21T01:27:10;10.30;99.90
16955;DHT22;8594;52.052;8.354;2023-11-21T01:29:36;10.40;99.90
16955;DHT22;8594;52.052;8.354;2023-11-21T01:32:04;10.40;99.90
16955;DHT22;8594;52.052;8.354;2023-11-21T01:34:34;10.40;99.90
16955;DHT22;8594;52.052;8.354;2023-11-21T01:37:01;10.40;99.90
16955;DHT22;8594;52.052;8.354;2023-11-21T01:39:30;10.30;99.90
16955;DHT22;8594;52.052;8.354;2023-11-21T01:41:57;10.30;99.90
16955;DHT22;8594;52.052;8.354;2023-11-21T01:44:24;10.50;99.90
16955;DHT22;8594;52.052;8.354;2023-11-21T01:46:51;10.60;99.90
16955;DHT22;8594;52.052;8.354;2023-11-21T01:49:19;10.70;99.90
16955;DHT22;8594;52.052;8.354;2023-11-21T01:51:49;10.90;99.90
16955;DHT22;8594;52.052;8.354;2023-11-21T01:54:17;10.90;99.90
16955;DHT22;8594;52.052;8.354;2023-11-21T01:56:46;10.70;99.90
16955;DHT22;8594;52.052;8.354;2023-11-21T01:59:15;10.50;99.90
16955;DHT22;8594;52.052;8.354;2023-11-21T02:01:46;10.40;99.90
16955;DHT22;8594;52.052;8.354;2023-11-21T02:04:13;10.50;99.90
16955;DHT22;8594;52.052;8.354;2023-11-21T02:06:41;10.50;99.90
16955;DHT22;8594;52.052;8.354;2023-11-21T02:09:10;10.40;99.90
16955;DHT22;8594;52.052;8.354;2023-11-21T02:11:40;10.40;99.90
16955;DHT22;8594;52.052;8.354;2023-11-21T02:14:07;10.30;99.90
16955;DHT22;8594;52.052;8.354;2023-11-21T02:16:35;10.40;99.90
16955;DHT22;8594;52.052;8.354;2023-11-21T02:19:03;10.30;99.90
16955;DHT22;8594;52.052;8.354;2023-11-21T02:21:34;10.30;99.90
16955;DHT22;8594;52.052;8.354;2023-11-21T02:24:08;10.40;99.90
16955;DHT22;8594;52.052;8.354;2023-11-21T02:26:35;10.40;99.90
16955;DHT22;8594;52.052;8.354;2023-11-21T02:29:02;10.40;99.90
16955;DHT22;8594;52.052;8.354;2023-11-21T02:31:30;10.50;99.90
16955;DHT22;8594;52.052;8.354;2023-11-21T02:33:58;10.40;99.90
16955;DHT22;8594;52.052;8.354;2023-11-21T02:36:25;10.40;99.90
16955;DHT22;8594;52.052;8.354;2023-11-21T02:38:51;10.40;99.90
16955;DHT22;8594;52.052;8.354;2023-11-21T02:41:20;10.40;99.90
16955;DHT22;8594;52.052;8.354;2023-11-21T02:43:46;10.40;99.90
16955;DHT22;8594;52.052;8.354;2023-11-21T02:46:13;10.40;99.90
16955;DHT22;8594;52.052;8.354;2023-11-21T02:48:40;10.40;99.90
16955;DHT22;8594;52.052;8.354;2023-11-21T02:51:07;10.50;99.90
16955;DHT22;8594;52.052;8.354;2023-11-21T02:53:33;10.50;99.90
16955;DHT22;8594;52.052;8.354;2023-11-21T02:56:00;10.50;99.90
16955;DHT22;8594;52.052;8.354;2023-11-21T02:58:29;10.40;99.90
16955;DHT22;8594;52.052;8.354;2023-11-21T03:00:56;10.50;99.90
16955;DHT22;8594;52.052;8.354;2023-11-21T03:03:23;10.50;99.90
16955;DHT22;8594;52.052;8.354;2023-11-21T03:05:50;10.50;99.90
16955;DHT22;8594;52.052;8.354;2023-11-21T03:08:17;10.50;99.90
16955;DHT22;8594;52.052;8.354;2023-11-21T03:10:44;10.60;99.90
16955;DHT22;8594;52.052;8.354;2023-11-21T03:13:11;10.60;99.90
16955;DHT22;8594;52.052;8.354;2023-11-21T03:15:39;10.50;99.90
16955;DHT22;8594;52.052;8.354;2023-11-21T03:18:06;10.40;99.90
16955;DHT22;8594;52.052;8.354;2023-11-21T03:20:33;10.50;99.90
16955;DHT22;8594;52.052;8.354;2023-11-21T03:23:01;10.40;99.90
16955;DHT22;8594;52.052;8.354;2023-11-21T03:25:29;10.50;99.90
16955;DHT22;8594;52.052;8.354;2023-11-21T03:27:56;10.50;99.90
16955;DHT22;8594;52.052;8.354;2023-11-21T03:30:23;10.60;99.90
16955;DHT22;8594;52.052;8.354;2023-11-21T03:32:52;10.60;99.90
16955;DHT22;8594;52.052;8.354;2023-11-21T03:35:19;10.60;99.90
16955;DHT22;8594;52.052;8.354;2023-11-21T03:37:46;10.60;99.90
16955;DHT22;8594;52.052;8.354;2023-11-21T03:40:13;10.50;99.90
16955;DHT22;8594;52.052;8.354;2023-11-21T03:42:40;10.60;99.90
16955;DHT22;8594;52.052;8.354;2023-11-21T03:45:08;10.60;99.90
16955;DHT22;8594;52.052;8.354;2023-11-21T03:47:37;10.40;99.90
16955;DHT22;8594;52.052;8.354;2023-11-21T03:50:06;10.40;99.90
16955;DHT22;8594;52.052;8.354;2023-11-21T03:52:34;10.30;99.90
16955;DHT22;8594;52.052;8.354;2023-11-21T03:55:01;10.40;99.90
16955;DHT22;8594;52.052;8.354;2023-11-21T03:57:29;10.40;99.90
16955;DHT22;8594;52.052;8.354;2023-11-21T03:59:56;10.40;99.90
16955;DHT22;8594;52.052;8.354;2023-11-21T04:02:23;10.30;99.90
16955;DHT22;8594;52.052;8.354;2023-11-21T04:04:51;10.30;99.90
16955;DHT22;8594;52.052;8.354;2023-11-21T04:07:19;10.30;99.90
16955;DHT22;8594;52.052;8.354;2023-11-21T04:09:47;10.30;99.90
16955;DHT22;8594;52.052;8.354;2023-11-21T04:12:14;10.30;99.90
16955;DHT22;8594;52.052;8.354;2023-11-21T04:14:41;10.30;99.90
16955;DHT22;8594;52.052;8.354;2023-11-21T04:17:07;10.30;99.90
16955;DHT22;8594;52.052;8.354;2023-11-21T04:19:34;10.30;99.90
16955;DHT22;8594;52.052;8.354;2023-11-21T04:22:01;10.30;99.90
16955;DHT22;8594;52.052;8.354;2023-11-21T04:24:30;10.30;99.90
16955;DHT22;8594;52.052;8.354;2023-11-21T04:26:57;10.30;99.90
16955;DHT22;8594;52.052;8.354;2023-11-21T04:29:24;10.30;99.90
16955;DHT22;8594;52.052;8.354;2023-11-21T04:31:51;10.30;99.90
16955;DHT22;8594;52.052;8.354;2023-11-21T04:34:18;10.20;99.90
16955;DHT22;8594;52.052;8.354;2023-11-21T04:36:45;10.30;99.90
16955;DHT22;8594;52.052;8.354;2023-11-21T04:39:11;10.20;99.90
16955;DHT22;8594;52.052;8.354;2023-11-21T04:41:40;10.20;99.90
16955;DHT22;8594;52.052;8.354;2023-11-21T04:44:07;10.20;99.90
16955;DHT22;8594;52.052;8.354;2023-11-21T04:46:34;10.30;99.90
16955;DHT22;8594;52.052;8.354;2023-11-21T04:49:01;10.30;99.90
16955;DHT22;8594;52.052;8.354;2023-11-21T04:51:28;10.20;99.90
16955;DHT22;8594;52.052;8.354;2023-11-21T04:53:55;10.20;99.90
16955;DHT22;8594;52.052;8.354;2023-11-21T04:56:21;10.10;99.90
16955;DHT22;8594;52.052;8.354;2023-11-21T04:58:50;10.10;99.90
16955;DHT22;8594;52.052;8.354;2023-11-21T05:01:16;10.00;99.90
16955;DHT22;8594;52.052;8.354;2023-11-21T05:03:43;10.10;99.90
16955;DHT22;8594;52.052;8.354;2023-11-21T05:06:12;10.10;99.90
16955;DHT22;8594;52.052;8.354;2023-11-21T05:08:39;10.20;99.90
16955;DHT22;8594;52.052;8.354;2023-11-21T05:11:06;10.30;99.90
16955;DHT22;8594;52.052;8.354;2023-11-21T05:13:36;10.20;99.90
16955;DHT22;8594;52.052;8.354;2023-11-21T05:16:06;10.30;99.90
16955;DHT22;8594;52.052;8.354;2023-11-21T05:18:33;10.30;99.90
16955;DHT22;8594;52.052;8.354;2023-11-21T05:21:00;10.30;99.90
16955;DHT22;8594;52.052;8.354;2023-11-21T05:23:27;10.20;99.90
16955;DHT22;8594;52.052;8.354;2023-11-21T05:25:54;10.30;99.90
16955;DHT22;8594;52.052;8.354;2023-11-21T05:28:21;10.30;99.90
16955;DHT22;8594;52.052;8.354;2023-11-21T05:30:48;10.30;99.90
16955;DHT22;8594;52.052;8.354;2023-11-21T05:33:17;10.30;99.90
16955;DHT22;8594;52.052;8.354;2023-11-21T05:35:44;10.30;99.90
16955;DHT22;8594;52.052;8.354;2023-11-21T05:38:11;10.40;99.90
16955;DHT22;8594;52.052;8.354;2023-11-21T05:40:38;10.30;99.90
16955;DHT22;8594;52.052;8.354;2023-11-21T05:43:03;10.20;99.90
16955;DHT22;8594;52.052;8.354;2023-11-21T05:45:31;10.30;99.90
16955;DHT22;8594;52.052;8.354;2023-11-21T05:47:58;10.30;99.90
16955;DHT22;8594;52.052;8.354;2023-11-21T05:50:27;10.40;99.90
16955;DHT22;8594;52.052;8.354;2023-11-21T05:52:53;10.30;99.90
16955;DHT22;8594;52.052;8.354;2023-11-21T05:55:22;10.30;99.90
16955;DHT22;8594;52.052;8.354;2023-11-21T05:57:51;10.30;99.90
16955;DHT22;8594;52.052;8.354;2023-11-21T06:00:20;10.40;99.90
16955;DHT22;8594;52.052;8.354;2023-11-21T06:02:47;10.40;99.90
16955;DHT22;8594;52.052;8.354;2023-11-21T06:05:16;10.40;99.90
16955;DHT22;8594;52.052;8.354;2023-11-21T06:07:46;10.30;99.90
16955;DHT22;8594;52.052;8.354;2023-11-21T06:10:13;10.20;99.90
16955;DHT22;8594;52.052;8.354;2023-11-21T06:12:40;10.20;99.90
16955;DHT22;8594;52.052;8.354;2023-11-21T06:15:09;10.20;99.90
16955;DHT22;8594;52.052;8.354;2023-11-21T06:17:39;10.20;99.90
16955;DHT22;8594;52.052;8.354;2023-11-21T06:20:07;10.10;99.90
16955;DHT22;8594;52.052;8.354;2023-11-21T06:22:35;10.00;99.90
16955;DHT22;8594;52.052;8.354;2023-11-21T06:25:05;10.00;99.90
16955;DHT22;8594;52.052;8.354;2023-11-21T06:27:33;10.10;99.90
16955;DHT22;8594;52.052;8.354;2023-11-21T06:30:01;10.10;99.90
16955;DHT22;8594;52.052;8.354;2023-11-21T06:32:29;10.10;99.90
16955;DHT22;8594;52.052;8.354;2023-11-21T06:34:56;10.10;99.90
16955;DHT22;8594;52.052;8.354;2023-11-21T06:37:24;10.20;99.90
16955;DHT22;8594;52.052;8.354;2023-11-21T06:39:52;10.30;99.90
16955;DHT22;8594;52.052;8.354;2023-11-21T06:42:20;10.30;99.90
16955;DHT22;8594;52.052;8.354;2023-11-21T06:44:47;10.20;99.90
16955;DHT22;8594;52.052;8.354;2023-11-21T06:47:14;10.10;99.90
16955;DHT22;8594;52.052;8.354;2023-11-21T06:49:43;10.20;99.90
16955;DHT22;8594;52.052;8.354;2023-11-21T06:52:09;10.30;99.90
16955;DHT22;8594;52.052;8.354;2023-11-21T06:54:37;10.20;99.90
16955;DHT22;8594;52.052;8.354;2023-11-21T06:57:04;10.10;99.90
16955;DHT22;8594;52.052;8.354;2023-11-21T06:59:32;10.10;99.90
16955;DHT22;8594;52.052;8.354;2023-11-21T07:01:58;10.20;99.90
16955;DHT22;8594;52.052;8.354;2023-11-21T07:04:25;10.10;99.90
16955;DHT22;8594;52.052;8.354;2023-11-21T07:06:53;10.00;99.90
16955;DHT22;8594;52.052;8.354;2023-11-21T07:09:20;10.00;99.90
16955;DHT22;8594;52.052;8.354;2023-11-21T07:11:48;10.00;99.90
16955;DHT22;8594;52.052;8.354;2023-11-21T07:14:16;10.00;99.90
16955;DHT22;8594;52.052;8.354;2023-11-21T07:16:46;10.10;99.90
16955;DHT22;8594;52.052;8.354;2023-11-21T07:19:13;10.00;99.90
16955;DHT22;8594;52.052;8.354;2023-11-21T07:21:40;10.00;99.90
16955;DHT22;8594;52.052;8.354;2023-11-21T07:24:08;10.10;99.90
16955;DHT22;8594;52.052;8.354;2023-11-21T07:26:36;10.10;99.90
16955;DHT22;8594;52.052;8.354;2023-11-21T07:29:04;10.10;99.90
16955;DHT22;8594;52.052;8.354;2023-11-21T07:31:31;10.20;99.90
16955;DHT22;8594;52.052;8.354;2023-11-21T07:34:01;10.20;99.90
16955;DHT22;8594;52.052;8.354;2023-11-21T07:36:28;10.20;99.90
16955;DHT22;8594;52.052;8.354;2023-11-21T07:38:55;10.00;99.90
16955;DHT22;8594;52.052;8.354;2023-11-21T07:41:22;10.00;99.90
16955;DHT22;8594;52.052;8.354;2023-11-21T07:43:48;10.00;99.90
16955;DHT22;8594;52.052;8.354;2023-11-21T07:46:15;10.00;99.90
16955;DHT22;8594;52.052;8.354;2023-11-21T07:48:43;10.00;99.90
16955;DHT22;8594;52.052;8.354;2023-11-21T07:51:12;10.00;99.90
16955;DHT22;8594;52.052;8.354;2023-11-21T07:53:40;10.00;99.90
16955;DHT22;8594;52.052;8.354;2023-11-21T07:56:08;10.10;99.90
16955;DHT22;8594;52.052;8.354;2023-11-21T07:58:35;10.10;99.90
16955;DHT22;8594;52.052;8.354;2023-11-21T08:01:03;10.20;99.90
16955;DHT22;8594;52.052;8.354;2023-11-21T08:03:30;10.20;99.90
16955;DHT22;8594;52.052;8.354;2023-11-21T08:05:57;10.20;99.90
16955;DHT22;8594;52.052;8.354;2023-11-21T08:08:26;10.20;99.90
16955;DHT22;8594;52.052;8.354;2023-11-21T08:10:53;10.20;99.90
16955;DHT22;8594;52.052;8.354;2023-11-21T08:13:22;10.20;99.90
16955;DHT22;8594;52.052;8.354;2023-11-21T08:15:50;10.20;99.90
16955;DHT22;8594;52.052;8.354;2023-11-21T08:18:17;10.20;99.90
16955;DHT22;8594;52.052;8.354;2023-11-21T08:20:44;10.20;99.90
16955;DHT22;8594;52.052;8.354;2023-11-21T08:23:13;10.30;99.90
16955;DHT22;8594;52.052;8.354;2023-11-21T08:25:43;10.10;99.90
16955;DHT22;8594;52.052;8.354;2023-11-21T08:28:10;10.20;99.90
16955;DHT22;8594;52.052;8.354;2023-11-21T08:30:37;10.30;99.90
16955;DHT22;8594;52.052;8.354;2023-11-21T08:33:05;10.30;99.90
16955;DHT22;8594;52.052;8.354;2023-11-21T08:35:32;10.40;99.90
16955;DHT22;8594;52.052;8.354;2023-11-21T08:37:59;10.30;99.90
16955;DHT22;8594;52.052;8.354;2023-11-21T08:40:26;10.10;99.90
16955;DHT22;8594;52.052;8.354;2023-11-21T08:42:54;10.10;99.90
16955;DHT22;8594;52.052;8.354;2023-11-21T08:45:21;10.00;99.90
16955;DHT22;8594;52.052;8.354;2023-11-21T08:47:48;10.00;99.90
16955;DHT22;8594;52.052;8.354;2023-11-21T08:50:15;10.00;99.90
16955;DHT22;8594;52.052;8.354;2023-11-21T08:52:44;10.10;99.90
16955;DHT22;8594;52.052;8.354;2023-11-21T08:55:12;10.10;99.90
16955;DHT22;8594;52.052;8.354;2023-11-21T08:57:40;10.10;99.90
16955;DHT22;8594;52.052;8.354;2023-11-21T09:00:10;10.00;99.90
16955;DHT22;8594;52.052;8.354;2023-11-21T09:02:38;10.10;99.90
16955;DHT22;8594;52.052;8.354;2023-11-21T09:05:07;10.20;99.90
16955;DHT22;8594;52.052;8.354;2023-11-21T09:07:35;10.30;99.90
16955;DHT22;8594;52.052;8.354;2023-11-21T09:10:03;10.40;99.90
16955;DHT22;8594;52.052;8.354;2023-11-21T09:12:32;10.20;99.90
16955;DHT22;8594;52.052;8.354;2023-11-21T09:15:00;10.00;99.90
16955;DHT22;8594;52.052;8.354;2023-11-21T09:17:28;10.00;99.90
16955;DHT22;8594;52.052;8.354;2023-11-21T09:19:55;10.00;99.90
16955;DHT22;8594;52.052;8.354;2023-11-21T09:22:22;10.10;99.90
16955;DHT22;8594;52.052;8.354;2023-11-21T09:24:50;10.20;99.90
16955;DHT22;8594;52.052;8.354;2023-11-21T09:27:17;10.40;99.90
16955;DHT22;8594;52.052;8.354;2023-11-21T09:29:45;10.40;99.90
16955;DHT22;8594;52.052;8.354;2023-11-21T09:32:14;10.30;99.90
16955;DHT22;8594;52.052;8.354;2023-11-21T09:34:45;10.20;99.90
16955;DHT22;8594;52.052;8.354;2023-11-21T09:37:12;10.20;99.90
16955;DHT22;8594;52.052;8.354;2023-11-21T09:39:38;10.40;99.90
16955;DHT22;8594;52.052;8.354;2023-11-21T09:42:10;10.40;99.90
16955;DHT22;8594;52.052;8.354;2023-11-21T09:44:46;10.40;99.90
16955;DHT22;8594;52.052;8.354;2023-11-21T09:47:19;10.40;99.90
16955;DHT22;8594;52.052;8.354;2023-11-21T09:49:48;10.30;99.90
16955;DHT22;8594;52.052;8.354;2023-11-21T09:52:22;10.30;99.90
16955;DHT22;8594;52.052;8.354;2023-11-21T09:54:52;10.30;99.90
16955;DHT22;8594;52.052;8.354;2023-11-21T09:57:23;10.20;99.90
16955;DHT22;8594;52.052;8.354;2023-11-21T09:59:51;10.20;99.90
16955;DHT22;8594;52.052;8.354;2023-11-21T10:02:22;10.20;99.90
16955;DHT22;8594;52.052;8.354;2023-11-21T10:04:54;10.40;99.90
16955;DHT22;8594;52.052;8.354;2023-11-21T10:07:22;10.30;99.90
16955;DHT22;8594;52.052;8.354;2023-11-21T10:09:51;10.20;99.90
16955;DHT22;8594;52.052;8.354;2023-11-21T10:12:20;10.20;99.90
16955;DHT22;8594;52.052;8.354;2023-11-21T10:14:48;10.20;99.90
16955;DHT22;8594;52.052;8.354;2023-11-21T10:17:17;10.20;99.90
16955;DHT22;8594;52.052;8.354;2023-11-21T10:19:46;10.40;99.90
16955;DHT22;8594;52.052;8.354;2023-11-21T10:22:15;10.50;99.90
16955;DHT22;8594;52.052;8.354;2023-11-21T10:24:42;10.50;99.90
16955;DHT22;8594;52.052;8.354;2023-11-21T10:27:09;10.40;99.90
16955;DHT22;8594;52.052;8.354;2023-11-21T10:29:36;10.40;99.90
16955;DHT22;8594;52.052;8.354;2023-11-21T10:32:04;10.20;99.90
16955;DHT22;8594;52.052;8.354;2023-11-21T10:34:31;10.20;99.90
16955;DHT22;8594;52.052;8.354;2023-11-21T10:37:11;10.20;99.90
16955;DHT22;8594;52.052;8.354;2023-11-21T10:39:39;10.20;99.90
16955;DHT22;8594;52.052;8.354;2023-11-21T10:42:09;9.90;99.90
16955;DHT22;8594;52.052;8.354;2023-11-21T10:44:36;10.00;99.90
16955;DHT22;8594;52.052;8.354;2023-11-21T10:47:03;9.90;99.90
16955;DHT22;8594;52.052;8.354;2023-11-21T10:49:30;9.90;99.90
16955;DHT22;8594;52.052;8.354;2023-11-21T10:51:57;10.00;99.90
16955;DHT22;8594;52.052;8.354;2023-11-21T10:54:25;10.10;99.90
16955;DHT22;8594;52.052;8.354;2023-11-21T10:56:57;10.00;99.90
16955;DHT22;8594;52.052;8.354;2023-11-21T10:59:29;9.80;99.90
16955;DHT22;8594;52.052;8.354;2023-11-21T11:01:58;9.80;99.90
16955;DHT22;8594;52.052;8.354;2023-11-21T11:04:28;9.80;99.90
16955;DHT22;8594;52.052;8.354;2023-11-21T11:06:56;9.60;99.90
16955;DHT22;8594;52.052;8.354;2023-11-21T11:09:29;9.30;99.90
16955;DHT22;8594;52.052;8.354;2023-11-21T11:11:59;9.20;99.90
16955;DHT22;8594;52.052;8.354;2023-11-21T11:14:27;9.30;99.90
16955;DHT22;8594;52.052;8.354;2023-11-21T11:16:55;9.30;99.90
16955;DHT22;8594;52.052;8.354;2023-11-21T11:19:22;9.30;99.90
16955;DHT22;8594;52.052;8.354;2023-11-21T11:21:56;9.40;99.90
16955;DHT22;8594;52.052;8.354;2023-11-21T11:24:44;9.50;99.90
16955;DHT22;8594;52.052;8.354;2023-11-21T11:27:29;9.50;99.90
16955;DHT22;8594;52.052;8.354;2023-11-21T11:30:15;9.40;99.90
16955;DHT22;8594;52.052;8.354;2023-11-21T11:32:55;9.30;99.90
16955;DHT22;8594;52.052;8.354;2023-11-21T11:35:41;9.10;99.90
16955;DHT22;8594;52.052;8.354;2023-11-21T11:38:15;9.40;99.90
16955;DHT22;8594;52.052;8.354;2023-11-21T11:40:46;9.30;99.90
16955;DHT22;8594;52.052;8.354;2023-11-21T11:43:25;9.30;99.90
16955;DHT22;8594;52.052;8.354;2023-11-21T11:45:53;9.30;99.90
16955;DHT22;8594;52.052;8.354;2023-11-21T11:48:22;9.30;99.90
16955;DHT22;8594;52.052;8.354;2023-11-21T11:51:06;9.10;99.90
16955;DHT22;8594;52.052;8.354;2023-11-21T11:53:38;9.20;99.90
16955;DHT22;8594;52.052;8.354;2023-11-21T11:56:25;9.10;99.90
16955;DHT22;8594;52.052;8.354;2023-11-21T11:58:58;9.00;99.90
16955;DHT22;8594;52.052;8.354;2023-11-21T12:01:28;9.00;99.90
16955;DHT22;8594;52.052;8.354;2023-11-21T12:04:23;9.00;99.90
16955;DHT22;8594;52.052;8.354;2023-11-21T12:06:59;9.20;99.90
16955;DHT22;8594;52.052;8.354;2023-11-21T12:09:28;9.10;99.90
16955;DHT22;8594;52.052;8.354;2023-11-21T12:11:57;9.00;99.90
16955;DHT22;8594;52.052;8.354;2023-11-21T12:14:25;9.00;99.90
16955;DHT22;8594;52.052;8.354;2023-11-21T12:16:53;8.90;99.90
16955;DHT22;8594;52.052;8.354;2023-11-21T12:19:20;8.80;99.90
16955;DHT22;8594;52.052;8.354;2023-11-21T12:21:48;8.80;99.90
16955;DHT22;8594;52.052;8.354;2023-11-21T12:24:16;8.80;99.90
16955;DHT22;8594;52.052;8.354;2023-11-21T12:26:43;8.70;99.90
16955;DHT22;8594;52.052;8.354;2023-11-21T12:29:11;8.80;99.90
16955;DHT22;8594;52.052;8.354;2023-11-21T12:31:39;8.80;99.90
16955;DHT22;8594;52.052;8.354;2023-11-21T12:34:06;8.80;99.90
16955;DHT22;8594;52.052;8.354;2023-11-21T12:36:37;8.70;99.90
16955;DHT22;8594;52.052;8.354;2023-11-21T12:39:04;8.70;99.90
16955;DHT22;8594;52.052;8.354;2023-11-21T12:41:34;8.70;99.90
16955;DHT22;8594;52.052;8.354;2023-11-21T12:44:01;8.80;99.90
16955;DHT22;8594;52.052;8.354;2023-11-21T12:46:28;8.80;99.90
16955;DHT22;8594;52.052;8.354;2023-11-21T12:49:00;8.40;99.90
16955;DHT22;8594;52.052;8.354;2023-11-21T12:51:27;8.30;99.90
16955;DHT22;8594;52.052;8.354;2023-11-21T12:53:55;8.30;99.90
16955;DHT22;8594;52.052;8.354;2023-11-21T12:56:22;8.20;99.90
16955;DHT22;8594;52.052;8.354;2023-11-21T12:58:50;8.20;99.90
16955;DHT22;8594;52.052;8.354;2023-11-21T13:01:25;8.30;99.90
16955;DHT22;8594;52.052;8.354;2023-11-21T13:03:55;8.40;99.90
16955;DHT22;8594;52.052;8.354;2023-11-21T13:06:25;8.40;99.90
16955;DHT22;8594;52.052;8.354;2023-11-21T13:08:52;8.40;99.90
16955;DHT22;8594;52.052;8.354;2023-11-21T13:11:20;8.40;99.90
16955;DHT22;8594;52.052;8.354;2023-11-21T13:13:48;8.50;99.90
16955;DHT22;8594;52.052;8.354;2023-11-21T13:16:18;8.50;99.90
16955;DHT22;8594;52.052;8.354;2023-11-21T13:18:46;8.50;99.90
16955;DHT22;8594;52.052;8.354;2023-11-21T13:21:13;8.70;99.90
16955;DHT22;8594;52.052;8.354;2023-11-21T13:23:42;8.70;99.90
16955;DHT22;8594;52.052;8.354;2023-11-21T13:26:11;8.80;99.90
16955;DHT22;8594;52.052;8.354;2023-11-21T13:28:40;8.90;99.90
16955;DHT22;8594;52.052;8.354;2023-11-21T13:31:11;8.90;99.90
16955;DHT22;8594;52.052;8.354;2023-11-21T13:33:51;8.80;99.90
16955;DHT22;8594;52.052;8.354;2023-11-21T13:36:21;8.70;99.90
16955;DHT22;8594;52.052;8.354;2023-11-21T13:38:50;8.80;99.90
16955;DHT22;8594;52.052;8.354;2023-11-21T13:41:19;9.00;99.90
16955;DHT22;8594;52.052;8.354;2023-11-21T13:43:48;8.90;99.90
16955;DHT22;8594;52.052;8.354;2023-11-21T13:46:22;8.90;99.90
16955;DHT22;8594;52.052;8.354;2023-11-21T13:48:49;8.90;99.90
16955;DHT22;8594;52.052;8.354;2023-11-21T13:51:20;9.00;99.90
16955;DHT22;8594;52.052;8.354;2023-11-21T13:53:57;9.00;99.90
16955;DHT22;8594;52.052;8.354;2023-11-21T13:56:24;9.10;99.90
16955;DHT22;8594;52.052;8.354;2023-11-21T13:58:54;9.20;99.90
16955;DHT22;8594;52.052;8.354;2023-11-21T14:01:22;8.90;99.90
16955;DHT22;8594;52.052;8.354;2023-11-21T14:04:10;8.90;99.90
16955;DHT22;8594;52.052;8.354;2023-11-21T14:06:45;8.90;99.90
16955;DHT22;8594;52.052;8.354;2023-11-21T14:09:16;8.90;99.90
16955;DHT22;8594;52.052;8.354;2023-11-21T14:11:51;9.10;99.90
16955;DHT22;8594;52.052;8.354;2023-11-21T14:14:19;9.10;99.90
16955;DHT22;8594;52.052;8.354;2023-11-21T14:16:47;8.90;99.90
16955;DHT22;8594;52.052;8.354;2023-11-21T14:19:15;8.90;99.90
16955;DHT22;8594;52.052;8.354;2023-11-21T14:21:42;8.80;99.90
16955;DHT22;8594;52.052;8.354;2023-11-21T14:24:10;8.70;99.90
16955;DHT22;8594;52.052;8.354;2023-11-21T14:26:40;8.70;99.90
16955;DHT22;8594;52.052;8.354;2023-11-21T14:29:08;8.70;99.90
16955;DHT22;8594;52.052;8.354;2023-11-21T14:31:37;8.50;99.90
16955;DHT22;8594;52.052;8.354;2023-11-21T14:34:04;8.50;99.90
16955;DHT22;8594;52.052;8.354;2023-11-21T14:36:32;8.70;99.90
16955;DHT22;8594;52.052;8.354;2023-11-21T14:38:59;8.70;99.90
16955;DHT22;8594;52.052;8.354;2023-11-21T14:41:26;8.70;99.90
16955;DHT22;8594;52.052;8.354;2023-11-21T14:43:55;8.70;99.90
16955;DHT22;8594;52.052;8.354;2023-11-21T14:46:23;8.80;99.90
16955;DHT22;8594;52.052;8.354;2023-11-21T14:48:49;8.90;99.90
16955;DHT22;8594;52.052;8.354;2023-11-21T14:51:24;8.90;99.90
16955;DHT22;8594;52.052;8.354;2023-11-21T14:53:53;8.90;99.90
16955;DHT22;8594;52.052;8.354;2023-11-21T14:56:20;8.80;99.90
16955;DHT22;8594;52.052;8.354;2023-11-21T14:58:52;8.80;99.90
16955;DHT22;8594;52.052;8.354;2023-11-21T15:01:23;8.80;99.90
16955;DHT22;8594;52.052;8.354;2023-11-21T15:04:02;8.90;99.90
16955;DHT22;8594;52.052;8.354;2023-11-21T15:06:31;8.90;99.90
16955;DHT22;8594;52.052;8.354;2023-11-21T15:08:57;8.90;99.90
16955;DHT22;8594;52.052;8.354;2023-11-21T15:11:52;8.90;99.90
16955;DHT22;8594;52.052;8.354;2023-11-21T15:14:23;8.80;99.90
16955;DHT22;8594;52.052;8.354;2023-11-21T15:16:58;8.80;99.90
16955;DHT22;8594;52.052;8.354;2023-11-21T15:19:27;8.50;99.90
16955;DHT22;8594;52.052;8.354;2023-11-21T15:21:55;8.50;99.90
16955;DHT22;8594;52.052;8.354;2023-11-21T15:24:22;8.40;99.90
16955;DHT22;8594;52.052;8.354;2023-11-21T15:26:49;8.40;99.90
16955;DHT22;8594;52.052;8.354;2023-11-21T15:29:16;8.50;99.90
16955;DHT22;8594;52.052;8.354;2023-11-21T15:31:43;8.50;99.90
16955;DHT22;8594;52.052;8.354;2023-11-21T15:34:15;8.50;99.90
16955;DHT22;8594;52.052;8.354;2023-11-21T15:36:42;8.40;99.90
16955;DHT22;8594;52.052;8.354;2023-11-21T15:39:10;8.40;99.90
16955;DHT22;8594;52.052;8.354;2023-11-21T15:41:37;8.40;99.90
16955;DHT22;8594;52.052;8.354;2023-11-21T15:44:05;8.50;99.90
16955;DHT22;8594;52.052;8.354;2023-11-21T15:46:35;8.50;99.90
16955;DHT22;8594;52.052;8.354;2023-11-21T15:49:03;8.60;99.90
16955;DHT22;8594;52.052;8.354;2023-11-21T15:51:39;8.50;99.90
16955;DHT22;8594;52.052;8.354;2023-11-21T15:54:07;8.60;99.90
16955;DHT22;8594;52.052;8.354;2023-11-21T15:56:34;8.70;99.90
16955;DHT22;8594;52.052;8.354;2023-11-21T15:59:02;8.80;99.90